WetterOnline ( https://www.wetteronline.ch )

Wetter aktuell Parchim

Aktuelles Wetter: Goldberg (58m)

6-stündlich | Neueste Meldungen
Ortszeit Temperatur Wetter
Di, 28.06. 2:00 17.0° C leichter Regen
Mo, 27.06. 20:00 21.6° C bewölkt
Mo, 27.06. 14:00 30.8° C wolkig
Mo, 27.06. 8:00 23.5° C leicht bewölkt
Mo, 27.06. 2:00 18.5° C wolkenlos
So, 26.06. 20:00 24.2° C wolkig
So, 26.06. 14:00 27.8° C bewölkt
So, 26.06. 8:00 22.3° C leicht bewölkt
Ortszeit Temperatur Wetter
Di, 28.06. 5:00 16.2° C bedeckt
Di, 28.06. 4:50 16.2° C bedeckt
Di, 28.06. 4:40 16.3° C bedeckt
Di, 28.06. 4:30 16.4° C bedeckt
Di, 28.06. 4:20 16.4° C bedeckt
Di, 28.06. 4:10 16.3° C bedeckt
Di, 28.06. 4:00 16.5° C bedeckt
Di, 28.06. 3:30 16.9° C bedeckt
Di, 28.06. 3:00 17.0° C bedeckt
Di, 28.06. 2:30 17.0° C Sprühregen
Di, 28.06. 2:00 17.0° C leichter Regen
Ortszeit Relative Feuchte Sichtweite
Di, 28.06. 2:00 96% 5.0 km
Mo, 27.06. 20:00 91% 17 km
Mo, 27.06. 14:00 50% 50 km
Mo, 27.06. 8:00 81% 30 km
Mo, 27.06. 2:00 96% 18 km
So, 26.06. 20:00 66% 50 km
So, 26.06. 14:00 53% 45 km
So, 26.06. 8:00 85% 17 km
Ortszeit Relative Feuchte Sichtweite
Di, 28.06. 5:00 90% 35 km
Di, 28.06. 4:50 90% -
Di, 28.06. 4:40 90% -
Di, 28.06. 4:30 91% 40 km
Di, 28.06. 4:20 91% -
Di, 28.06. 4:10 93% -
Di, 28.06. 4:00 92% 30 km
Di, 28.06. 3:30 93% 29 km
Di, 28.06. 3:00 93% 23 km
Di, 28.06. 2:30 96% 8 km
Di, 28.06. 2:00 96% 5.0 km
Ortszeit Niederschlagsmenge Niederschlagsart
Di, 28.06. 2:00 0.1 l/m2 in 6 Std. Regen
Mo, 27.06. 20:00 16 l/m2 in 12 Std. Regen
Mo, 27.06. 14:00 0.0 l/m2 in 6 Std. -
Mo, 27.06. 8:00 3 l/m2 in 12 Std. -
Mo, 27.06. 2:00 3 l/m2 in 6 Std. Regen
So, 26.06. 20:00 0.1 l/m2 in 12 Std. Regen
So, 26.06. 14:00 0.0 l/m2 in 6 Std. -
So, 26.06. 8:00 0.1 l/m2 in 12 Std. -
Ortszeit Niederschlagsmenge Niederschlagsart
Di, 28.06. 5:00 0.1 l/m2 in 1 Std. Regen
Di, 28.06. 4:50 keine Meldung -
Di, 28.06. 4:40 keine Meldung -
Di, 28.06. 4:30 0.0 l/m2 in 1 Std. -
Di, 28.06. 4:20 keine Meldung -
Di, 28.06. 4:10 keine Meldung -
Di, 28.06. 4:00 0.1 l/m2 in 1 Std. Regen
Di, 28.06. 3:30 0.1 l/m2 in 1 Std. Schneeregen
Di, 28.06. 3:00 0.1 l/m2 in 1 Std. Regen
Di, 28.06. 2:30 0.1 l/m2 in 1 Std. -
Di, 28.06. 2:00 0.1 l/m2 in 1 Std. Regen
Ortszeit Stärke Spitze Richtung
km/h Bft. km/h Grad Sektor
Di, 28.06. 2:00 9 2 31 330° NW
Mo, 27.06. 20:00 13 3 44 310° NW
Mo, 27.06. 14:00 7 2 17 150° SO
Mo, 27.06. 8:00 4 1 14 140° SO
Mo, 27.06. 2:00 6 1 19 360° N
So, 26.06. 20:00 11 2 46 310° NW
So, 26.06. 14:00 4 1 18 120° SO
So, 26.06. 8:00 6 1 11 140° SO
Ortszeit Stärke Spitze Richtung
km/h Bft. km/h Grad Sektor
Di, 28.06. 5:00 15 3 28 290° W
Di, 28.06. 4:50 15 3 - 290° W
Di, 28.06. 4:40 13 3 - 290° W
Di, 28.06. 4:30 14 3 29 290° W
Di, 28.06. 4:20 14 3 - 290° W
Di, 28.06. 4:10 11 2 - 280° W
Di, 28.06. 4:00 18 3 25 270° W
Di, 28.06. 3:30 11 2 22 280° W
Di, 28.06. 3:00 11 2 18 280° W
Di, 28.06. 2:30 7 2 14 320° NW
Di, 28.06. 2:00 9 2 20 330° NW
Ortszeit Untergrenze Bedeckung Gattung
total tief tief mittel hoch
Di, 28.06. 2:00 120 m 8/8 8/8 - - -
Mo, 27.06. 20:00 2100 m 8/8 4/8 - - -
Mo, 27.06. 14:00 1800 m 8/8 2/8 - - -
Mo, 27.06. 8:00 8400 m 4/8 0/8 - - -
Mo, 27.06. 2:00 - 0/8 0/8 - - -
So, 26.06. 20:00 2100 m 7/8 4/8 - - -
So, 26.06. 14:00 3000 m 7/8 7/8 - - -
So, 26.06. 8:00 2100 m 5/8 3/8 - - -
Ortszeit Bedeckungsgrad in Achtel und Wolkenuntergrenze
Di, 28.06. 5:00 1(270m) 8(510m) 8(810m)
Di, 28.06. 4:50 1(270m) 8(510m) 8(810m)
Di, 28.06. 4:40 8
Di, 28.06. 4:30 3(210m) 8(510m)
Di, 28.06. 4:20 3(210m) 8(510m)
Di, 28.06. 4:10 8
Di, 28.06. 4:00 5(210m) 8(420m)
Di, 28.06. 3:30 7(240m) 8(360m)
Di, 28.06. 3:00 3(210m) 8(390m)
Di, 28.06. 2:30 8(120m)
Di, 28.06. 2:00 8(120m)
Ortszeit Luftdruck NN (hPa) Tendenz (hPa in 3 Std.)
Di, 28.06. 2:00 1017 + 0,5
Mo, 27.06. 20:00 1014 + 1,2
Mo, 27.06. 14:00 1012 - 1,3
Mo, 27.06. 8:00 1013 - 0,6
Mo, 27.06. 2:00 1014 - 1,2
So, 26.06. 20:00 1015 + 0,9
So, 26.06. 14:00 1014 + 0,1
So, 26.06. 8:00 1014 + 0,5
Ortszeit Luftdruck NN (hPa) Tendenz (hPa in 3 Std.)
Di, 28.06. 5:00 1018 + 1,2
Di, 28.06. 4:50 1018 keine Meldung
Di, 28.06. 4:40 1019 keine Meldung
Di, 28.06. 4:30 1018 + 1,3
Di, 28.06. 4:20 1018 keine Meldung
Di, 28.06. 4:10 1018 keine Meldung
Di, 28.06. 4:00 1018 + 1,2
Di, 28.06. 3:30 1018 + 1,5
Di, 28.06. 3:00 1018 + 1,0
Di, 28.06. 2:30 1017 + 1,0
Di, 28.06. 2:00 1017 + 0,5
Ortszeit Schneehöhe (cm)
Di, 28.06. 2:00 0
Mo, 27.06. 20:00 0
Mo, 27.06. 14:00 0
Mo, 27.06. 8:00 0
Mo, 27.06. 2:00 0
So, 26.06. 20:00 0
So, 26.06. 14:00 0
So, 26.06. 8:00 0
Ortszeit Schneehöhe (cm)
Di, 28.06. 5:00 0
Di, 28.06. 4:50 0
Di, 28.06. 4:40 0
Di, 28.06. 4:30 0
Di, 28.06. 4:20 0
Di, 28.06. 4:10 0
Di, 28.06. 4:00 0
Di, 28.06. 3:30 0
Di, 28.06. 3:00 0
Di, 28.06. 2:30 0
Di, 28.06. 2:00 0
Link zu dieser Seite / Seite empfehlen

Das Wetter in ...